Yongala, Australia
Current Conditions -  °F | °C
As of 11:00 AM on Tuesday 23 Dec 2014 (Local Time) from YWHA Reporting Station
Overcast Overcast  
Wind Chill: 68°   Ceiling: 2600
Heat Index: 68°   Visibility: 6mi
Dew Point: 59°   Wind: 17mph
Humidity: 73%   Direction: 200°SSW
Pressure: 29.94"   Gusts: NA
Location:  33.03°S, 138.75°E
Report Text: YWHA 230100Z AUTO 20015KT 9999 // BKN026 OVC032 20/15 Q1014
Loading
Personal Weather Stations






























Interactive Weather Map New forecast layout! Learn more

10-Day Weather Forecast

Advertisements
Track Severe Weather on mobile